Time;durP1;ratioP1;P1;durP2;ratioP2;P2;SDS_P1;SDS_P2;PMS_P1;PMS_P2;Temp;Humidity;BMP_temperature;BMP_pressure;BME280_temperature;BME280_humidity;BME280_pressure;Samples;Min_cycle;Max_cycle;Signal;HPM_P1;HPM_P2
2022/07/15 00:02:05;;;;;;;10.73;4.22;;;;;;;19.29;53.69;99358.16;5012961;28;20048;-76
2022/07/15 00:04:32;;;;;;;6.55;3.45;;;;;;;19.61;52.82;99351.81;5030663;28;20499;-76
2022/07/15 00:06:57;;;;;;;7.95;3.70;;;;;;;20.14;51.38;99352.38;5030637;28;20030;-76
2022/07/15 00:10:13;;;;;;;10.52;3.95;;;;;;;20.25;51.39;99350.34;5010327;28;20506;-76
2022/07/15 00:12:09;;;;;;;4.82;3.50;;;;;;;19.84;51.84;99347.84;5044694;28;20040;-76
2022/07/15 00:14:34;;;;;;;8.90;3.47;;;;;;;19.89;51.53;99338.91;5052478;28;20498;-76
2022/07/15 00:17:00;;;;;;;10.20;3.53;;;;;;;19.67;52.16;99327.53;5072051;28;20055;-76
2022/07/15 00:19:26;;;;;;;6.13;3.60;;;;;;;19.63;52.57;99344.53;5074198;28;20024;-76
2022/07/15 00:21:51;;;;;;;8.43;4.15;;;;;;;19.81;52.17;99346.59;5074151;28;20104;-76
2022/07/15 00:24:17;;;;;;;5.68;3.40;;;;;;;19.33;53.40;99339.94;5045447;28;20026;-76
2022/07/15 00:26:42;;;;;;;5.95;3.65;;;;;;;19.41;53.27;99331.50;5047786;28;20028;-76
2022/07/15 00:29:08;;;;;;;5.55;4.00;;;;;;;19.49;53.20;99353.00;5073419;28;20025;-76
2022/07/15 00:31:33;;;;;;;9.55;3.15;;;;;;;19.54;53.20;99346.94;5036028;28;20495;-76
2022/07/15 00:33:59;;;;;;;5.28;3.38;;;;;;;19.35;53.60;99350.91;5053857;28;20074;-76
2022/07/15 00:36:24;;;;;;;5.28;3.03;;;;;;;19.10;54.24;99348.75;5053875;28;20558;-76
2022/07/15 00:38:50;;;;;;;3.70;2.90;;;;;;;19.39;53.33;99345.25;5035523;28;20025;-76
2022/07/15 00:41:15;;;;;;;4.35;2.80;;;;;;;19.76;52.05;99349.84;5051992;28;20482;-76
2022/07/15 00:43:41;;;;;;;4.00;2.63;;;;;;;20.02;51.42;99353.59;5048171;28;20530;-76
2022/07/15 00:46:06;;;;;;;3.30;3.00;;;;;;;19.63;51.99;99341.72;5052335;28;20017;-76
2022/07/15 00:48:32;;;;;;;4.95;2.88;;;;;;;19.53;52.10;99347.31;5052360;28;20067;-76
2022/07/15 00:50:59;;;;;;;5.50;2.80;;;;;;;19.35;52.41;99350.91;5053497;28;20017;-76
2022/07/15 00:53:28;;;;;;;10.55;4.10;;;;;;;19.14;53.21;99329.75;5035032;28;20111;-76
2022/07/15 00:55:59;;;;;;;18.63;7.88;;;;;;;19.10;53.07;99340.25;5053553;28;20017;-76
2022/07/15 00:58:26;;;;;;;15.30;7.20;;;;;;;19.03;53.79;99337.38;5053097;28;20032;-76
2022/07/15 01:00:54;;;;;;;25.42;11.90;;;;;;;18.98;53.70;99340.56;5053206;28;20021;-75
2022/07/15 01:03:20;;;;;;;20.45;12.15;;;;;;;18.98;52.98;99340.56;5035422;28;20029;-76
2022/07/15 01:05:47;;;;;;;11.02;5.60;;;;;;;18.89;53.25;99341.72;5051296;28;20355;-76
2022/07/15 01:08:19;;;;;;;10.02;3.63;;;;;;;18.75;53.85;99335.97;5052432;28;20016;-75
2022/07/15 01:10:44;;;;;;;4.45;3.97;;;;;;;18.52;54.39;99322.84;5052716;28;20033;-75
2022/07/15 01:13:10;;;;;;;4.72;3.22;;;;;;;18.49;54.25;99334.97;5034981;28;20045;-75
2022/07/15 01:15:35;;;;;;;9.85;3.10;;;;;;;18.40;54.63;99337.31;5045931;28;20037;-76
2022/07/15 01:18:02;;;;;;;4.53;2.97;;;;;;;18.30;54.87;99324.72;5015422;28;20029;-76
2022/07/15 01:20:29;;;;;;;5.63;3.67;;;;;;;18.21;54.71;99320.19;5033044;28;20029;-76
2022/07/15 01:22:54;;;;;;;5.75;2.95;;;;;;;18.21;54.86;99314.50;5047200;28;20057;-75
2022/07/15 01:25:20;;;;;;;6.78;3.17;;;;;;;18.20;54.61;99312.06;5033114;28;20110;-75
2022/07/15 01:27:45;;;;;;;5.70;2.67;;;;;;;18.06;55.22;99319.22;5014944;28;20037;-76
2022/07/15 01:30:11;;;;;;;7.35;2.75;;;;;;;18.23;55.30;99317.75;5025503;28;20028;-76
2022/07/15 01:32:37;;;;;;;6.53;2.85;;;;;;;18.36;55.03;99331.63;5036054;28;20111;-76
2022/07/15 01:35:03;;;;;;;4.50;2.88;;;;;;;18.07;55.44;99318.03;5052897;28;20490;-75
2022/07/15 01:37:28;;;;;;;2.70;2.50;;;;;;;17.92;56.15;99317.06;5051931;28;20083;-75
2022/07/15 01:39:54;;;;;;;11.55;3.72;;;;;;;17.81;56.53;99324.63;5034919;28;20025;-76
2022/07/15 01:42:20;;;;;;;6.82;3.75;;;;;;;17.68;56.54;99324.91;5052671;28;20082;-75
2022/07/15 01:44:45;;;;;;;6.43;3.03;;;;;;;17.71;57.00;99328.94;5052688;28;20521;-75
2022/07/15 01:47:11;;;;;;;5.25;3.45;;;;;;;17.44;57.93;99328.25;5052644;28;20056;-75
2022/07/15 01:49:36;;;;;;;6.32;3.38;;;;;;;17.63;57.16;99322.41;5047779;28;20468;-75
2022/07/15 01:52:03;;;;;;;8.30;3.28;;;;;;;17.68;57.11;99327.72;5047982;28;20073;-75
2022/07/15 01:54:30;;;;;;;8.43;3.58;;;;;;;17.64;57.56;99329.69;5052355;28;20019;-75
2022/07/15 01:56:56;;;;;;;5.32;3.63;;;;;;;17.54;58.28;99333.19;5052347;28;20109;-75
2022/07/15 01:59:24;;;;;;;6.40;3.10;;;;;;;17.65;58.16;99327.69;5052136;28;20104;-75
2022/07/15 02:01:51;;;;;;;5.97;3.47;;;;;;;17.79;57.69;99327.84;5033022;28;20036;-75
2022/07/15 02:04:17;;;;;;;6.90;4.25;;;;;;;17.82;57.61;99327.03;5050341;28;20476;-76
2022/07/15 02:06:43;;;;;;;7.00;3.53;;;;;;;17.19;58.83;99318.25;5034353;28;20032;-76
2022/07/15 02:09:09;;;;;;;6.68;3.70;;;;;;;17.48;58.51;99321.41;5042163;28;20021;-76
2022/07/15 02:11:35;;;;;;;7.97;3.78;;;;;;;17.65;58.39;99316.38;5047300;28;20028;-76
2022/07/15 02:14:01;;;;;;;5.28;3.38;;;;;;;17.53;58.58;99329.56;5031902;28;20065;-75
2022/07/15 02:16:30;;;;;;;3.42;3.13;;;;;;;17.58;58.59;99322.75;5030909;28;20044;-75
2022/07/15 02:18:56;;;;;;;7.95;3.38;;;;;;;17.54;58.29;99319.06;5012201;28;20029;-75
2022/07/15 02:21:22;;;;;;;6.53;3.53;;;;;;;17.67;57.91;99331.72;5012357;28;20033;-75
2022/07/15 02:23:47;;;;;;;5.38;3.67;;;;;;;17.64;57.85;99331.72;5020764;28;20029;-75
2022/07/15 02:26:13;;;;;;;6.10;3.67;;;;;;;17.62;57.70;99317.94;5050854;28;20102;-75
2022/07/15 02:28:39;;;;;;;5.53;4.03;;;;;;;17.71;57.58;99326.13;5031819;28;20532;-75
2022/07/15 02:31:05;;;;;;;10.55;4.05;;;;;;;17.59;58.24;99323.56;5013255;28;20040;-75
2022/07/15 02:33:31;;;;;;;14.05;3.80;;;;;;;17.48;58.18;99307.28;5031587;28;20148;-75
2022/07/15 02:35:57;;;;;;;7.35;3.50;;;;;;;17.36;58.76;99322.50;5031823;28;20029;-75
2022/07/15 02:38:22;;;;;;;12.32;3.90;;;;;;;17.07;59.78;99338.28;5031553;28;20619;-75
2022/07/15 02:40:48;;;;;;;5.13;3.85;;;;;;;16.83;60.66;99346.81;5031128;28;20036;-75
2022/07/15 02:43:14;;;;;;;5.60;3.90;;;;;;;16.79;61.39;99343.09;5031014;28;20087;-75
2022/07/15 02:45:40;;;;;;;14.32;4.80;;;;;;;17.03;60.67;99334.59;5029732;28;20025;-75
2022/07/15 02:48:07;;;;;;;10.40;5.18;;;;;;;17.10;60.50;99338.31;5031304;28;20037;-75
2022/07/15 02:50:33;;;;;;;15.50;4.70;;;;;;;17.12;60.75;99335.94;5013742;28;20021;-75
2022/07/15 02:52:59;;;;;;;7.65;4.55;;;;;;;17.07;60.94;99333.41;5030478;28;20036;-75
2022/07/15 02:55:24;;;;;;;9.60;4.43;;;;;;;17.29;60.35;99321.59;5031435;28;20498;-75
2022/07/15 02:57:50;;;;;;;10.20;3.95;;;;;;;17.62;59.55;99334.91;5030999;28;20033;-75
2022/07/15 03:00:19;;;;;;;13.30;4.10;;;;;;;17.96;58.03;99331.22;5011779;28;20056;-75
2022/07/15 03:02:48;;;;;;;6.95;3.20;;;;;;;18.35;57.05;99330.81;5018880;28;20029;-75
2022/07/15 03:05:14;;;;;;;10.05;3.75;;;;;;;18.63;56.21;99331.41;5031292;28;20096;-76
2022/07/15 03:07:40;;;;;;;9.73;3.78;;;;;;;18.84;55.77;99338.44;5028383;28;20124;-76
2022/07/15 03:10:08;;;;;;;15.60;4.57;;;;;;;18.94;55.22;99335.69;5031232;28;20079;-76
2022/07/15 03:12:33;;;;;;;9.38;3.70;;;;;;;18.80;54.86;99353.41;5034476;28;20045;-76
2022/07/15 03:14:59;;;;;;;6.80;3.65;;;;;;;19.07;55.00;99341.06;5051061;28;20518;-76
2022/07/15 03:17:25;;;;;;;8.55;3.70;;;;;;;19.19;54.96;99345.56;5026907;28;20427;-76
2022/07/15 03:19:50;;;;;;;6.75;3.47;;;;;;;19.16;54.52;99350.00;5032750;28;20467;-76
2022/07/15 03:22:16;;;;;;;6.57;3.78;;;;;;;19.13;54.41;99333.78;5049536;28;20114;-75
2022/07/15 03:24:41;;;;;;;12.50;3.90;;;;;;;19.22;53.93;99328.56;5049381;28;20211;-75
2022/07/15 03:27:08;;;;;;;22.35;5.18;;;;;;;18.49;56.14;99327.28;5050998;28;20021;-75
2022/07/15 03:29:34;;;;;;;15.57;3.83;;;;;;;18.24;56.93;99324.25;5050858;28;20025;-75
2022/07/15 03:31:59;;;;;;;11.63;3.92;;;;;;;18.53;56.35;99330.13;5033085;28;20028;-75
2022/07/15 03:34:25;;;;;;;10.90;4.60;;;;;;;18.42;56.67;99315.09;5050525;28;20395;-75
2022/07/15 03:36:51;;;;;;;7.05;5.10;;;;;;;18.18;57.50;99320.97;5050211;28;20035;-75
2022/07/15 03:39:16;;;;;;;6.60;3.88;;;;;;;17.99;57.65;99327.63;5046790;28;20024;-75
2022/07/15 03:41:42;;;;;;;8.88;4.22;;;;;;;17.94;57.50;99327.97;5049200;28;20029;-75
2022/07/15 03:44:07;;;;;;;11.60;4.97;;;;;;;17.76;58.31;99327.78;5050745;28;20450;-75
2022/07/15 03:46:33;;;;;;;12.13;4.90;;;;;;;17.81;58.05;99330.28;5050883;28;20025;-75
2022/07/15 03:49:00;;;;;;;7.57;4.35;;;;;;;17.65;58.51;99330.50;5032359;28;20547;-75
2022/07/15 03:51:30;;;;;;;6.80;4.13;;;;;;;17.66;58.58;99332.13;5035141;28;20020;-75
2022/07/15 03:53:56;;;;;;;;;;;;;;;17.96;58.17;99332.06;5020644;28;20484;-75
2022/07/15 03:56:21;;;;;;;9.00;3.42;;;;;;;18.31;57.00;99329.97;5040567;28;19921;-75
2022/07/15 03:58:47;;;;;;;10.05;3.40;;;;;;;18.45;55.71;99329.28;5053010;28;20024;-77
2022/07/15 04:01:12;;;;;;;9.50;3.47;;;;;;;18.90;54.91;99334.03;5054658;28;20024;-74
2022/07/15 04:03:38;;;;;;;18.85;3.47;;;;;;;18.87;53.71;99331.97;5054449;28;20449;-77
2022/07/15 04:06:04;;;;;;;28.15;4.68;;;;;;;18.75;53.71;99330.28;5037249;28;20052;-76
2022/07/15 04:08:29;;;;;;;6.55;2.80;;;;;;;18.66;53.64;99331.44;5037288;28;20102;-81
2022/07/15 04:10:56;;;;;;;5.75;3.55;;;;;;;18.21;55.69;99325.00;5054760;28;20495;-81
2022/07/15 04:13:22;;;;;;;3.25;2.80;;;;;;;18.28;55.84;99327.09;5036529;28;20045;-79
2022/07/15 04:15:47;;;;;;;4.13;3.22;;;;;;;18.34;55.88;99328.38;5036817;28;20096;-79
2022/07/15 04:18:13;;;;;;;7.88;3.63;;;;;;;18.40;55.97;99326.00;5036895;28;20029;-77
2022/07/15 04:20:38;;;;;;;8.40;3.00;;;;;;;18.14;56.73;99336.28;5036822;28;20028;-77
2022/07/15 04:23:04;;;;;;;5.80;2.90;;;;;;;18.29;56.91;99325.91;5036779;28;20439;-74
2022/07/15 04:25:29;;;;;;;8.68;3.30;;;;;;;18.26;57.18;99324.66;5034380;28;20029;-76
2022/07/15 04:27:55;;;;;;;5.15;3.33;;;;;;;18.15;57.48;99315.28;5053168;28;20028;-76
2022/07/15 04:30:20;;;;;;;6.68;3.67;;;;;;;18.37;57.46;99325.56;5053981;28;20032;-76
2022/07/15 04:32:46;;;;;;;5.65;3.55;;;;;;;18.61;56.99;99326.16;5035371;28;20040;-76
2022/07/15 04:35:11;;;;;;;7.93;3.58;;;;;;;18.75;56.91;99335.97;5036685;28;20498;-76
2022/07/15 04:37:37;;;;;;;7.30;3.53;;;;;;;18.88;56.54;99317.44;5036740;28;20072;-79
2022/07/15 04:40:03;;;;;;;7.93;3.65;;;;;;;19.08;56.42;99317.97;5054644;28;20028;-76
2022/07/15 04:42:28;;;;;;;14.70;5.07;;;;;;;19.24;57.03;99321.69;5035755;28;20029;-77
2022/07/15 04:44:54;;;;;;;7.57;3.90;;;;;;;19.69;56.30;99313.75;5045216;28;20031;-78
2022/07/15 04:47:20;;;;;;;6.57;3.53;;;;;;;19.85;55.11;99321.09;5067615;28;20025;-78
2022/07/15 04:52:30;;;;;;;8.13;3.63;;;;;;;19.55;55.14;99328.69;5054408;28;20106;-75
2022/07/15 04:54:56;;;;;;;7.22;4.00;;;;;;;19.35;54.98;99326.19;5035500;28;20075;-74
2022/07/15 04:57:22;;;;;;;14.45;3.60;;;;;;;19.49;55.66;99322.59;5035606;28;20033;-74
2022/07/15 04:59:48;;;;;;;5.53;3.20;;;;;;;19.49;55.60;99322.59;5035771;28;20476;-78
2022/07/15 05:02:13;;;;;;;6.15;3.35;;;;;;;19.91;54.71;99313.81;5049027;28;20470;-76
2022/07/15 05:04:40;;;;;;;4.07;3.25;;;;;;;19.91;54.93;99330.84;5051922;28;20029;-75
2022/07/15 05:07:06;;;;;;;4.80;3.55;;;;;;;19.85;54.40;99326.75;5046913;28;20032;-76
2022/07/15 05:09:32;;;;;;;8.13;3.03;;;;;;;20.02;54.40;99328.84;5051950;28;20098;-76
2022/07/15 05:11:58;;;;;;;4.00;3.30;;;;;;;19.90;53.08;99335.69;5036580;28;20061;-76
2022/07/15 05:14:23;;;;;;;10.77;4.15;;;;;;;20.06;53.67;99321.16;5029903;28;20095;-76
2022/07/15 05:16:49;;;;;;;18.23;4.63;;;;;;;20.38;52.94;99318.72;5024450;28;20049;-76
2022/07/15 05:19:15;;;;;;;8.20;3.78;;;;;;;20.29;53.08;99325.63;5023938;28;20125;-77
2022/07/15 05:21:40;;;;;;;9.23;3.70;;;;;;;20.42;52.72;99322.38;5014314;28;20642;-76
2022/07/15 05:24:06;;;;;;;10.68;3.75;;;;;;;20.58;51.62;99325.63;5044652;28;20399;-76
2022/07/15 05:26:31;;;;;;;6.22;2.97;;;;;;;20.68;50.43;99326.00;5028889;28;20507;-76
2022/07/15 05:28:57;;;;;;;5.85;3.30;;;;;;;20.89;50.52;99328.84;5039287;28;20021;-76
2022/07/15 05:31:22;;;;;;;10.52;3.03;;;;;;;21.11;49.01;99330.81;5031875;28;20064;-76
2022/07/15 05:33:48;;;;;;;11.05;3.67;;;;;;;21.12;48.52;99327.59;5032328;28;20034;-77
2022/07/15 05:36:15;;;;;;;21.13;5.82;;;;;;;21.28;48.57;99334.84;5032705;28;20553;-77
2022/07/15 05:38:41;;;;;;;157.77;90.45;;;;;;;21.59;48.04;99337.94;5031023;28;20025;-76
2022/07/15 05:41:08;;;;;;;48.03;35.40;;;;;;;21.79;47.76;99334.63;5031019;28;20033;-77
2022/07/15 05:43:35;;;;;;;24.67;14.80;;;;;;;21.96;46.87;99325.19;5009744;28;20597;-77
2022/07/15 05:46:00;;;;;;;37.33;17.95;;;;;;;22.22;46.89;99322.97;5023874;28;20053;-76
2022/07/15 05:48:26;;;;;;;13.85;6.10;;;;;;;22.38;46.58;99325.25;5030237;28;20072;-77
2022/07/15 05:50:52;;;;;;;7.35;3.58;;;;;;;22.36;46.58;99321.22;5011279;28;20044;-77
2022/07/15 05:53:17;;;;;;;7.30;3.25;;;;;;;22.43;45.77;99326.84;5031140;28;20029;-77
2022/07/15 05:55:43;;;;;;;8.05;3.13;;;;;;;22.65;45.06;99335.25;5027121;28;20033;-76
2022/07/15 05:58:09;;;;;;;7.03;2.78;;;;;;;22.88;45.16;99328.09;5031516;28;20071;-77
2022/07/15 06:00:37;;;;;;;4.68;3.67;;;;;;;23.10;45.19;99334.38;5030858;28;20034;-81
2022/07/15 06:03:06;;;;;;;7.22;3.33;;;;;;;23.01;44.42;99326.31;5032145;28;20033;-80
2022/07/15 06:05:32;;;;;;;8.00;3.42;;;;;;;23.01;43.82;99334.88;5021393;28;20048;-80
2022/07/15 06:07:58;;;;;;;6.35;2.67;;;;;;;22.79;44.42;99337.94;5009831;28;20033;-80
2022/07/15 06:10:23;;;;;;;8.90;3.45;;;;;;;22.92;43.61;99329.69;5032235;28;20086;-82
2022/07/15 06:12:49;;;;;;;6.13;2.58;;;;;;;23.31;42.88;99332.53;5032039;28;20045;-78
2022/07/15 06:15:15;;;;;;;11.57;3.78;;;;;;;23.64;42.46;99330.09;5029778;28;20116;-78
2022/07/15 06:17:40;;;;;;;4.63;2.70;;;;;;;23.86;41.51;99333.44;5030714;28;20133;-80
2022/07/15 06:20:07;;;;;;;7.57;3.30;;;;;;;24.13;41.87;99329.81;5012868;28;20110;-78
2022/07/15 06:22:33;;;;;;;4.47;3.05;;;;;;;24.43;40.22;99333.00;5000019;28;20030;-79
2022/07/15 06:24:58;;;;;;;8.95;2.70;;;;;;;24.52;40.30;99321.84;5019054;28;20104;-74
2022/07/15 06:27:24;;;;;;;5.18;2.88;;;;;;;24.66;40.39;99326.50;5024976;28;20027;-80
2022/07/15 06:29:50;;;;;;;3.80;2.80;;;;;;;24.62;39.76;99334.34;5021129;28;20112;-77
2022/07/15 06:32:17;;;;;;;3.22;2.92;;;;;;;24.53;39.18;99330.00;5002029;28;20033;-79
2022/07/15 06:34:42;;;;;;;6.25;2.92;;;;;;;24.57;39.03;99323.41;5009590;28;20452;-81
2022/07/15 06:37:08;;;;;;;5.25;3.10;;;;;;;24.92;40.49;99318.31;5031183;28;20105;-80
2022/07/15 06:39:34;;;;;;;5.35;2.80;;;;;;;25.27;39.95;99306.56;5012812;28;20025;-80
2022/07/15 06:42:00;;;;;;;7.70;2.40;;;;;;;25.57;38.91;99316.22;5031138;28;20503;-78
2022/07/15 06:44:26;;;;;;;9.10;3.28;;;;;;;25.72;37.67;99313.84;5011315;28;20122;-80
2022/07/15 06:46:52;;;;;;;3.90;1.90;;;;;;;25.72;35.45;99308.13;5013137;28;20485;-77
2022/07/15 06:49:18;;;;;;;4.03;2.20;;;;;;;25.57;34.59;99308.41;5029209;28;20404;-77
2022/07/15 06:51:44;;;;;;;11.55;3.08;;;;;;;25.83;35.82;99308.69;5025979;28;20029;-77
2022/07/15 06:54:09;;;;;;;4.65;1.95;;;;;;;25.92;33.66;99311.72;5009935;28;20143;-75
2022/07/15 06:56:35;;;;;;;5.65;1.88;;;;;;;26.15;33.22;99304.22;5008072;28;20030;-75
2022/07/15 06:59:00;;;;;;;8.75;2.50;;;;;;;26.24;34.74;99305.72;5003912;28;20080;-76
2022/07/15 07:01:26;;;;;;;4.88;2.35;;;;;;;26.39;34.79;99294.69;5012479;28;20121;-74
2022/07/15 07:03:52;;;;;;;7.15;2.90;;;;;;;26.41;34.85;99297.91;5013527;28;20029;-75
2022/07/15 07:06:17;;;;;;;4.22;2.30;;;;;;;26.47;34.96;99294.06;5030058;28;20017;-74
2022/07/15 07:08:46;;;;;;;4.20;2.70;;;;;;;26.32;34.55;99304.28;5029994;28;20087;-75
2022/07/15 07:11:11;;;;;;;7.45;2.67;;;;;;;26.58;34.62;99298.72;5010737;28;20045;-76
2022/07/15 07:13:37;;;;;;;6.13;2.80;;;;;;;26.63;34.35;99298.97;5028068;28;20057;-75
2022/07/15 07:16:04;;;;;;;8.48;2.65;;;;;;;26.71;34.97;99298.78;5028181;28;20033;-75
2022/07/15 07:18:29;;;;;;;5.35;3.67;;;;;;;26.90;34.76;99299.91;5028221;28;20059;-74
2022/07/15 07:20:56;;;;;;;2.58;2.05;;;;;;;26.96;34.50;99300.19;5028256;28;20484;-73
2022/07/15 07:23:23;;;;;;;4.32;2.33;;;;;;;27.08;35.07;99301.50;5027030;28;20033;-74
2022/07/15 07:25:48;;;;;;;3.95;2.60;;;;;;;27.13;33.89;99298.06;5009811;28;20032;-74
2022/07/15 07:28:14;;;;;;;7.05;2.15;;;;;;;27.09;33.16;99300.25;5036813;28;20112;-74
2022/07/15 07:30:39;;;;;;;8.95;2.40;;;;;;;26.81;33.73;99297.69;5028992;28;20099;-74
2022/07/15 07:33:05;;;;;;;4.32;2.45;;;;;;;26.97;33.86;99302.59;5040957;28;20406;-73
2022/07/15 07:35:30;;;;;;;14.07;2.47;;;;;;;27.24;33.42;99301.44;5047379;28;20024;-74
2022/07/15 07:37:56;;;;;;;11.05;3.83;;;;;;;26.91;34.29;99298.69;5026918;28;20037;-74
2022/07/15 07:40:21;;;;;;;6.93;2.83;;;;;;;26.74;34.37;99287.22;5009078;28;20071;-75
2022/07/15 07:42:47;;;;;;;11.55;2.40;;;;;;;27.05;33.77;99301.16;5027861;28;20033;-74
2022/07/15 07:45:12;;;;;;;3.20;2.30;;;;;;;26.73;33.94;99293.41;5040415;28;20115;-73
2022/07/15 07:47:40;;;;;;;2.45;2.25;;;;;;;26.61;33.89;99292.88;5030157;28;20055;-74
2022/07/15 07:50:07;;;;;;;4.22;2.00;;;;;;;27.13;34.05;99296.00;5010495;28;20055;-73
2022/07/15 07:52:33;;;;;;;5.20;2.15;;;;;;;27.20;33.56;99297.88;5026732;28;20076;-72
2022/07/15 07:54:59;;;;;;;2.33;2.10;;;;;;;27.16;33.15;99288.56;5027251;28;20026;-73
2022/07/15 07:57:24;;;;;;;6.65;2.58;;;;;;;27.64;33.82;99288.00;5009110;28;20401;-74
2022/07/15 07:59:50;;;;;;;2.38;2.15;;;;;;;28.06;32.66;99284.22;5030182;28;20026;-74
2022/07/15 08:02:16;;;;;;;7.43;2.28;;;;;;;28.26;32.99;99281.94;5029665;28;20046;-77
2022/07/15 08:04:41;;;;;;;4.60;2.20;;;;;;;28.26;31.89;99284.00;5011869;28;20057;-73
2022/07/15 08:07:08;;;;;;;3.70;2.45;;;;;;;28.08;31.90;99278.81;5028771;28;20064;-70
2022/07/15 08:09:33;;;;;;;16.90;3.85;;;;;;;28.11;32.47;99278.69;5030013;28;20396;-74
2022/07/15 08:11:59;;;;;;;2.38;2.17;;;;;;;27.82;32.50;99275.97;5011542;28;20025;-72
2022/07/15 08:14:25;;;;;;;3.70;2.50;;;;;;;28.23;31.00;99285.72;5029461;28;20083;-77
2022/07/15 08:16:51;;;;;;;7.35;2.00;;;;;;;28.54;32.36;99287.16;5030208;28;20411;-80
2022/07/15 08:19:19;;;;;;;5.68;2.08;;;;;;;28.52;31.10;99278.19;5030227;28;20037;-77
2022/07/15 08:21:45;;;;;;;4.72;2.13;;;;;;;28.77;30.08;99276.50;5030467;28;20017;-77
2022/07/15 08:24:12;;;;;;;4.78;2.47;;;;;;;29.06;30.81;99269.72;5028715;28;20028;-79
2022/07/15 08:26:38;;;;;;;14.20;2.45;;;;;;;29.26;30.36;99261.56;5004592;28;20026;-74
2022/07/15 08:29:04;;;;;;;5.15;1.60;;;;;;;29.38;29.86;99268.53;5022893;28;20108;-78
2022/07/15 08:31:30;;;;;;;7.32;1.88;;;;;;;29.66;29.55;99265.00;5011667;28;20092;-76
2022/07/15 08:33:56;;;;;;;5.07;1.92;;;;;;;29.74;29.66;99265.53;5029101;28;20037;-75
2022/07/15 08:36:22;;;;;;;4.53;1.90;;;;;;;29.82;29.06;99269.72;5030863;28;20037;-73
2022/07/15 08:38:48;;;;;;;5.32;2.00;;;;;;;30.04;29.08;99260.25;5015477;28;20463;-73
2022/07/15 08:41:15;;;;;;;10.40;2.50;;;;;;;30.04;29.69;99254.47;5033698;28;20458;-75
2022/07/15 08:43:41;;;;;;;8.35;2.10;;;;;;;30.19;29.59;99258.34;5021947;28;20477;-74
2022/07/15 08:46:08;;;;;;;10.15;2.33;;;;;;;30.24;28.91;99262.69;5011935;28;20151;-74
2022/07/15 08:48:36;;;;;;;4.68;2.10;;;;;;;30.50;30.51;99257.47;5024531;28;20030;-72
2022/07/15 08:51:05;;;;;;;10.55;2.85;;;;;;;30.76;30.12;99253.50;5015159;28;20036;-77
2022/07/15 08:53:31;;;;;;;3.17;2.05;;;;;;;30.36;28.87;99244.47;5015448;28;20124;-76
2022/07/15 08:55:57;;;;;;;6.25;2.20;;;;;;;30.48;28.95;99250.56;5015534;28;20589;-74
2022/07/15 08:58:23;;;;;;;7.57;2.53;;;;;;;30.76;29.30;99262.16;5014648;28;20025;-76
2022/07/15 09:00:49;;;;;;;6.88;2.30;;;;;;;30.84;28.42;99251.13;5029194;28;20514;-73
2022/07/15 09:03:15;;;;;;;5.97;2.35;;;;;;;31.00;28.92;99241.31;5011458;28;20057;-74
2022/07/15 09:06:21;;;;;;;14.13;2.13;;;;;;;31.26;28.54;99247.56;5027894;28;20033;-75
2022/07/15 09:08:46;;;;;;;5.82;2.38;;;;;;;31.42;28.76;99248.47;5030844;28;20087;-75
2022/07/15 09:11:12;;;;;;;3.17;2.20;;;;;;;31.34;28.45;99242.25;5023837;28;20037;-74
2022/07/15 09:13:39;;;;;;;6.07;1.80;;;;;;;31.49;27.82;99237.38;5024330;28;20051;-75
2022/07/15 09:16:19;;;;;;;3.72;1.90;;;;;;;31.47;28.07;99239.94;5020206;28;20037;-75
2022/07/15 09:18:45;;;;;;;7.72;2.00;;;;;;;31.07;27.00;99229.44;5049455;28;20112;-76
2022/07/15 09:21:18;;;;;;;2.30;1.60;;;;;;;31.36;27.36;99245.44;5047315;28;20207;-75
2022/07/15 09:23:44;;;;;;;7.03;2.00;;;;;;;31.62;26.62;99242.97;5049312;28;20062;-78
2022/07/15 09:26:28;;;;;;;6.43;1.98;;;;;;;31.73;25.88;99242.44;5032253;28;20060;-76
2022/07/15 09:28:55;;;;;;;4.38;1.60;;;;;;;31.86;25.53;99224.13;5029173;28;20094;-76
2022/07/15 09:34:19;;;;;;;1.75;1.65;;;;;;;31.34;25.97;99222.00;5050238;28;20067;-75
2022/07/15 09:36:50;;;;;;;2.30;1.60;;;;;;;31.85;26.95;99231.16;5049846;28;20110;-76
2022/07/15 09:39:17;;;;;;;12.63;2.08;;;;;;;32.03;27.15;99231.09;5028594;28;20055;-75
2022/07/15 09:41:44;;;;;;;5.47;1.98;;;;;;;31.76;26.63;99223.31;5047960;28;20109;-75
2022/07/15 09:44:23;;;;;;;3.85;1.77;;;;;;;31.06;26.09;99219.94;5038982;28;20036;-75
2022/07/15 09:47:01;;;;;;;8.33;1.90;;;;;;;31.40;27.06;99217.19;5047886;28;20040;-75
2022/07/15 09:49:26;;;;;;;14.07;2.10;;;;;;;31.91;26.09;99218.44;5046666;28;20040;-75
2022/07/15 09:51:55;;;;;;;1.75;1.30;;;;;;;31.38;25.02;99209.00;5046200;28;20111;-75
2022/07/15 09:54:28;;;;;;;12.07;1.67;;;;;;;32.03;25.64;99210.84;5032642;28;20405;-75
2022/07/15 09:56:53;;;;;;;3.42;1.80;;;;;;;32.47;24.20;99209.44;5032028;28;20124;-74
2022/07/15 09:59:19;;;;;;;3.67;1.38;;;;;;;32.52;23.70;99212.94;5048594;28;20029;-75
2022/07/15 10:01:48;;;;;;;3.92;1.83;;;;;;;32.71;22.90;99204.94;5046548;28;20515;-74
2022/07/15 10:04:16;;;;;;;1.42;1.10;;;;;;;32.94;22.71;99211.16;5031983;28;20021;-75
2022/07/15 10:06:43;;;;;;;4.43;1.30;;;;;;;33.03;22.21;99209.00;5050918;28;20075;-75
2022/07/15 10:09:09;;;;;;;3.65;1.23;;;;;;;33.15;23.04;99198.41;5043029;28;20432;-74
2022/07/15 10:11:48;;;;;;;7.88;1.40;;;;;;;33.38;22.95;99195.91;5048471;28;20514;-75
2022/07/15 10:15:01;;;;;;;11.90;2.08;;;;;;;33.12;22.62;99187.81;5029760;28;20052;-75
2022/07/15 10:17:36;;;;;;;8.98;1.83;;;;;;;32.13;22.16;99193.44;5016194;28;20044;-76
2022/07/15 10:20:23;;;;;;;1.70;1.40;;;;;;;32.15;22.42;99187.97;5042752;28;20038;-73
2022/07/15 10:22:54;;;;;;;1.67;1.40;;;;;;;32.93;22.61;99181.44;5045551;28;20029;-75
2022/07/15 10:25:47;;;;;;;4.78;1.83;;;;;;;33.23;22.26;99187.22;5048068;28;20132;-75
2022/07/15 10:28:19;;;;;;;14.93;1.80;;;;;;;33.10;22.14;99184.63;5042131;28;20029;-75
2022/07/15 10:30:45;;;;;;;1.63;1.15;;;;;;;33.17;21.42;99177.63;5042915;28;20017;-75
2022/07/15 10:33:18;;;;;;;4.55;1.35;;;;;;;33.38;22.34;99180.63;5045031;28;20389;-75
2022/07/15 10:35:47;;;;;;;1.52;1.42;;;;;;;33.36;22.08;99172.44;5032063;28;20492;-74
2022/07/15 10:38:22;;;;;;;2.72;1.30;;;;;;;33.59;22.50;99178.63;5031469;28;20025;-75
2022/07/15 10:41:16;;;;;;;2.45;1.50;;;;;;;33.65;22.33;99170.78;5051054;28;20025;-75
2022/07/15 10:43:54;;;;;;;4.38;2.00;;;;;;;33.56;21.93;99179.63;5048844;28;20500;-75
2022/07/15 10:46:22;;;;;;;2.00;1.23;;;;;;;33.15;21.09;99163.66;5050626;28;20487;-75
2022/07/15 10:48:57;;;;;;;3.65;1.17;;;;;;;33.62;21.70;99154.41;5032245;28;20542;-75
2022/07/15 10:51:37;;;;;;;1.48;1.20;;;;;;;32.56;22.14;99162.25;5042963;28;20040;-75
2022/07/15 10:54:18;;;;;;;2.15;1.42;;;;;;;32.44;22.02;99157.53;5025877;28;20025;-76
2022/07/15 10:56:45;;;;;;;2.10;1.48;;;;;;;31.98;22.92;99150.81;5044911;28;20085;-76
2022/07/15 10:59:41;;;;;;;8.23;1.70;;;;;;;32.67;22.80;99155.09;5049075;28;20559;-75
2022/07/15 11:02:06;;;;;;;4.25;1.15;;;;;;;32.88;23.08;99150.22;5041765;28;20476;-76
2022/07/15 11:04:33;;;;;;;10.57;1.20;;;;;;;33.22;21.33;99145.06;5033979;28;20136;-75
2022/07/15 11:07:07;;;;;;;9.15;1.70;;;;;;;33.35;22.43;99146.84;5050570;28;20024;-75
2022/07/15 11:09:53;;;;;;;4.70;1.40;;;;;;;33.01;21.77;99141.28;5039894;28;20462;-76
2022/07/15 11:12:28;;;;;;;7.70;2.13;;;;;;;33.25;22.11;99143.25;5051146;28;20028;-75
2022/07/15 11:15:11;;;;;;;7.20;1.38;;;;;;;33.01;21.25;99138.38;5029581;28;20041;-75
2022/07/15 11:17:43;;;;;;;4.10;2.33;;;;;;;33.31;21.05;99136.25;5009033;28;20412;-75
2022/07/15 11:20:11;;;;;;;2.47;1.50;;;;;;;33.46;21.76;99130.47;5029691;28;20060;-76
2022/07/15 11:22:43;;;;;;;10.63;1.77;;;;;;;33.83;23.06;99125.47;5012363;28;20057;-76
2022/07/15 11:25:45;;;;;;;1.92;1.10;;;;;;;33.88;20.81;99133.44;5027376;28;20446;-76
2022/07/15 11:28:17;;;;;;;5.30;1.20;;;;;;;33.73;21.19;99124.81;5017366;28;20423;-76
2022/07/15 11:30:56;;;;;;;3.50;1.17;;;;;;;33.54;20.79;99125.06;5010674;28;20025;-76
2022/07/15 11:33:26;;;;;;;5.68;2.15;;;;;;;33.97;21.38;99130.41;5009872;28;20041;-75
2022/07/15 11:35:58;;;;;;;1.10;1.00;;;;;;;33.99;20.86;99118.34;5025141;28;20053;-76
2022/07/15 11:38:27;;;;;;;2.70;1.13;;;;;;;33.38;20.83;99114.78;5012758;28;20029;-76
2022/07/15 11:46:30;;;;;;;6.97;1.63;;;;;;;33.89;19.63;99108.94;5032593;28;20124;-76